Time;durP1;ratioP1;P1;durP2;ratioP2;P2;SDS_P1;SDS_P2;PMS_P1;PMS_P2;Temp;Humidity;BMP_temperature;BMP_pressure;BME280_temperature;BME280_humidity;BME280_pressure;Samples;Min_cycle;Max_cycle;Signal;HPM_P1;HPM_P2
2022/04/29 00:02:55;;;;;;;12.50;5.45;;;14.10;96.10;;;;;;5094201;28;19956;-82
2022/04/29 00:05:21;;;;;;;10.30;6.05;;;13.90;95.90;;;;;;5067927;27;20059;-81
2022/04/29 00:07:56;;;;;;;11.77;6.90;;;14.00;95.90;;;;;;5068220;28;20048;-82
2022/04/29 00:10:34;;;;;;;9.80;6.07;;;14.00;96.10;;;;;;5083898;27;20509;-82
2022/04/29 00:13:12;;;;;;;11.60;7.35;;;14.00;96.00;;;;;;5068142;28;20036;-82
2022/04/29 00:15:49;;;;;;;;;;;;;;;;;;;;;
2022/04/29 00:18:21;;;;;;;16.55;6.72;;;13.90;96.20;;;;;;5090210;28;42647;-82
2022/04/29 00:20:58;;;;;;;10.35;5.75;;;13.90;96.30;;;;;;5092376;28;20097;-82
2022/04/29 00:23:31;;;;;;;13.50;6.13;;;13.80;96.30;;;;;;5068633;28;20355;-82
2022/04/29 00:26:13;;;;;;;12.15;6.88;;;13.80;96.40;;;;;;5076466;28;20052;-82
2022/04/29 00:28:41;;;;;;;11.80;6.80;;;13.80;96.40;;;;;;5069164;28;20522;-82
2022/04/29 00:31:28;;;;;;;11.32;6.78;;;13.50;96.30;;;;;;5073972;28;20048;-82
2022/04/29 00:34:14;;;;;;;10.15;6.22;;;13.80;96.40;;;;;;5068660;28;20900;-82
2022/04/29 00:36:42;;;;;;;11.32;7.15;;;13.80;96.50;;;;;;5085434;28;20078;-81
2022/04/29 00:39:14;;;;;;;12.75;7.18;;;13.80;96.50;;;;;;5069608;28;20048;-82
2022/04/29 00:41:45;;;;;;;12.05;7.18;;;13.30;96.50;;;;;;5081074;28;20044;-82
2022/04/29 00:44:22;;;;;;;12.00;6.70;;;13.20;96.60;;;;;;5105743;28;20956;-81
2022/04/29 00:46:59;;;;;;;13.98;7.60;;;14.70;97.00;;;;;;5080676;28;20044;-82
2022/04/29 00:49:33;;;;;;;15.85;6.65;;;13.30;96.70;;;;;;5086048;28;20150;-82
2022/04/29 00:52:02;;;;;;;12.40;7.75;;;13.70;96.90;;;;;;5089350;28;20040;-84
2022/04/29 00:54:35;;;;;;;12.60;7.00;;;13.80;97.00;;;;;;5099233;28;20102;-82
2022/04/29 00:57:19;;;;;;;12.75;6.65;;;13.60;97.00;;;;;;5080135;28;20052;-82
2022/04/29 01:00:04;;;;;;;12.07;7.55;;;13.50;97.10;;;;;;5070644;28;20056;-82
2022/04/29 01:02:37;;;;;;;11.88;6.93;;;13.00;97.00;;;;;;5093122;27;20679;-82
2022/04/29 01:05:36;;;;;;;11.75;7.20;;;13.50;97.30;;;;;;5093779;28;20044;-82
2022/04/29 01:08:28;;;;;;;20.02;9.50;;;13.40;97.30;;;;;;5072676;28;20131;-82
2022/04/29 01:11:00;;;;;;;12.60;8.48;;;13.40;97.30;;;;;;5088295;27;20574;-82
2022/04/29 01:14:02;;;;;;;15.13;7.78;;;13.40;97.40;;;;;;5091274;28;20044;-82
2022/04/29 01:16:30;;;;;;;10.63;5.43;;;14.20;97.60;;;;;;5073784;28;22643;-83
2022/04/29 01:18:59;;;;;;;16.58;9.05;;;13.40;97.50;;;;;;5073004;28;20037;-82
2022/04/29 01:21:38;;;;;;;12.40;7.97;;;13.50;97.50;;;;;;5074968;28;20056;-82
2022/04/29 01:24:17;;;;;;;12.73;6.80;;;13.40;97.50;;;;;;5074161;28;20110;-82
2022/04/29 01:26:49;;;;;;;13.13;7.20;;;13.40;97.60;;;;;;5075000;28;20076;-82
2022/04/29 01:29:28;;;;;;;13.98;8.65;;;13.40;97.70;;;;;;5072771;28;20093;-82
2022/04/29 01:31:55;;;;;;;13.38;7.85;;;13.40;97.80;;;;;;5066586;28;20044;-82
2022/04/29 01:34:32;;;;;;;13.27;8.32;;;13.40;97.90;;;;;;5083916;27;20048;-82
2022/04/29 01:37:13;;;;;;;16.77;8.20;;;13.60;98.10;;;;;;5074294;28;20334;-82
2022/04/29 01:39:52;;;;;;;18.05;9.25;;;13.40;98.10;;;;;;5067464;28;20133;-82
2022/04/29 01:42:27;;;;;;;13.75;8.18;;;13.40;98.20;;;;;;5094348;28;20040;-82
2022/04/29 01:44:57;;;;;;;15.07;8.27;;;13.10;98.10;;;;;;5068815;28;20052;-82
2022/04/29 01:47:41;;;;;;;15.85;9.18;;;13.40;98.30;;;;;;5074262;28;20060;-82
2022/04/29 01:50:18;;;;;;;13.27;7.85;;;13.10;98.20;;;;;;5084260;28;20090;-82
2022/04/29 01:52:44;;;;;;;12.93;7.15;;;13.40;98.30;;;;;;5072281;28;20580;-82
2022/04/29 01:55:33;;;;;;;14.80;8.50;;;13.40;98.40;;;;;;5091206;28;20240;-82
2022/04/29 01:58:21;;;;;;;13.13;7.60;;;13.40;98.40;;;;;;5070923;28;20040;-82
2022/04/29 02:00:55;;;;;;;19.52;8.25;;;13.10;98.40;;;;;;5092502;28;20458;-82
2022/04/29 02:03:34;;;;;;;13.10;7.18;;;13.40;98.70;;;;;;5083048;28;20044;-82
2022/04/29 02:06:06;;;;;;;16.20;8.98;;;13.30;98.70;;;;;;5074843;28;20051;-82
2022/04/29 02:08:34;;;;;;;13.27;7.32;;;13.30;98.90;;;;;;5068025;28;20036;-82
2022/04/29 02:11:11;;;;;;;16.50;8.40;;;13.30;99.00;;;;;;5072732;28;20067;-82
2022/04/29 02:16:56;;;;;;;11.15;7.40;;;13.30;99.10;;;;;;5077696;28;20738;-82
2022/04/29 02:19:24;;;;;;;16.00;9.95;;;13.60;99.30;;;;;;5071601;28;20048;-82
2022/04/29 02:21:53;;;;;;;13.95;8.48;;;13.20;99.40;;;;;;5073181;28;20441;-82
2022/04/29 02:24:22;;;;;;;18.35;9.10;;;13.20;99.60;;;;;;5088124;28;20040;-82
2022/04/29 02:29:39;;;;;;;19.23;9.15;;;13.00;99.80;;;;;;5092538;28;20078;-82
2022/04/29 02:32:21;;;;;;;14.10;8.38;;;13.30;99.90;;;;;;5068532;28;20055;-82
2022/04/29 02:34:50;;;;;;;16.02;9.70;;;12.90;99.90;;;;;;5074611;28;20067;-82
2022/04/29 02:37:19;;;;;;;19.45;9.35;;;13.20;99.90;;;;;;5073844;28;20040;-82
2022/04/29 02:39:58;;;;;;;21.55;9.68;;;13.10;99.90;;;;;;5071850;28;20052;-83
2022/04/29 02:42:36;;;;;;;12.13;6.25;;;13.10;99.90;;;;;;5074824;28;20245;-82
2022/04/29 02:45:08;;;;;;;16.20;8.70;;;13.10;99.90;;;;;;5070267;28;20049;-82
2022/04/29 02:47:40;;;;;;;18.95;10.32;;;12.50;99.90;;;;;;5094687;28;20052;-82
2022/04/29 02:50:19;;;;;;;13.18;6.95;;;13.10;99.90;;;;;;5070663;28;20055;-82
2022/04/29 02:52:52;;;;;;;18.92;10.02;;;13.10;99.90;;;;;;5094924;27;20158;-82
2022/04/29 02:55:32;;;;;;;21.20;10.40;;;13.20;99.90;;;;;;5087683;27;20448;-81
2022/04/29 02:58:04;;;;;;;20.58;9.98;;;13.00;99.90;;;;;;5078026;28;21369;-83
2022/04/29 03:00:38;;;;;;;17.45;9.05;;;13.10;99.90;;;;;;5074718;28;20056;-82
2022/04/29 03:03:14;;;;;;;17.05;9.10;;;12.80;99.90;;;;;;5076394;28;20055;-83
2022/04/29 03:08:38;;;;;;;18.73;8.80;;;13.60;99.90;;;;;;5094763;28;20094;-83
2022/04/29 03:11:08;;;;;;;18.25;9.45;;;13.00;99.90;;;;;;5092442;28;20047;-82
2022/04/29 03:13:47;;;;;;;22.63;10.80;;;13.00;99.90;;;;;;5070774;28;20604;-82
2022/04/29 03:16:18;;;;;;;18.10;9.88;;;12.80;99.90;;;;;;5095900;28;20044;-83
2022/04/29 03:18:49;;;;;;;18.30;10.35;;;13.00;99.90;;;;;;5086824;28;20044;-82
2022/04/29 03:21:20;;;;;;;24.38;9.63;;;12.90;99.90;;;;;;5070183;28;20074;-83
2022/04/29 03:23:54;;;;;;;20.98;9.70;;;13.00;99.90;;;;;;5068724;28;20048;-83
2022/04/29 03:26:35;;;;;;;17.23;9.38;;;12.80;99.90;;;;;;5077906;28;20049;-83
2022/04/29 03:29:06;;;;;;;21.60;12.50;;;13.10;99.90;;;;;;5075114;28;20044;-83
2022/04/29 03:31:40;;;;;;;19.80;9.68;;;12.50;99.90;;;;;;5091874;27;20129;-82
2022/04/29 03:34:09;;;;;;;24.33;10.98;;;12.90;99.90;;;;;;5076825;28;20087;-83
2022/04/29 03:36:47;;;;;;;21.73;11.50;;;12.90;99.90;;;;;;5086079;28;20056;-83
2022/04/29 03:39:30;;;;;;;17.67;10.43;;;12.70;99.90;;;;;;5076079;28;20044;-83
2022/04/29 03:45:15;;;;;;;21.23;10.63;;;12.90;99.90;;;;;;5068755;28;20089;-83
2022/04/29 03:47:56;;;;;;;19.92;9.75;;;12.80;99.90;;;;;;5075248;28;20044;-83
2022/04/29 03:50:43;;;;;;;20.17;10.38;;;12.80;99.90;;;;;;5093635;28;20938;-83
2022/04/29 03:53:27;;;;;;;20.92;8.40;;;12.80;99.90;;;;;;5091859;27;20075;-80
2022/04/29 03:56:01;;;;;;;24.77;10.18;;;12.70;99.90;;;;;;5091577;27;20064;-82
2022/04/29 03:58:41;;;;;;;20.15;10.55;;;12.60;99.90;;;;;;5073134;28;20048;-83
2022/04/29 04:01:13;;;;;;;28.75;11.35;;;12.70;99.90;;;;;;5071902;28;20435;-83
2022/04/29 04:03:58;;;;;;;19.02;9.82;;;12.70;99.90;;;;;;5053852;28;20542;-83
2022/04/29 04:09:32;;;;;;;22.17;11.27;;;12.60;99.90;;;;;;5073913;28;20048;-83
2022/04/29 04:12:11;;;;;;;15.10;7.35;;;12.60;99.90;;;;;;5054962;28;20036;-83
2022/04/29 04:14:43;;;;;;;22.50;11.65;;;12.60;99.90;;;;;;5072528;28;20076;-82
2022/04/29 04:17:19;;;;;;;22.70;13.05;;;12.60;99.90;;;;;;5049212;28;20053;-83
2022/04/29 04:19:50;;;;;;;20.27;10.38;;;12.50;99.90;;;;;;5046332;28;20068;-83
2022/04/29 04:22:27;;;;;;;24.00;12.50;;;12.60;99.90;;;;;;5062986;28;21604;-83
2022/04/29 04:24:59;;;;;;;20.33;9.40;;;12.60;99.90;;;;;;5046349;28;20606;-83
2022/04/29 04:27:34;;;;;;;21.15;10.07;;;12.60;99.90;;;;;;5051892;28;20045;-83
2022/04/29 04:30:19;;;;;;;18.05;10.38;;;12.50;99.90;;;;;;5044601;28;20056;-82
2022/04/29 04:32:59;;;;;;;24.90;11.73;;;12.50;99.90;;;;;;5061963;28;20048;-83
2022/04/29 04:35:33;;;;;;;23.17;11.52;;;12.60;99.90;;;;;;5051847;28;20059;-83
2022/04/29 04:38:28;;;;;;;18.17;11.60;;;12.60;99.90;;;;;;5052106;28;20120;-83
2022/04/29 04:43:49;;;;;;;22.95;10.38;;;12.60;99.90;;;;;;5044253;28;21009;-83
2022/04/29 04:46:30;;;;;;;19.02;10.38;;;12.40;99.90;;;;;;5044824;28;20040;-83
2022/04/29 04:49:05;;;;;;;21.95;13.38;;;12.60;99.90;;;;;;5052093;28;20103;-83
2022/04/29 04:51:33;;;;;;;21.08;11.88;;;12.70;99.90;;;;;;5051381;28;20099;-83
2022/04/29 04:54:12;;;;;;;27.73;9.55;;;12.60;99.90;;;;;;5053168;28;20057;-83
2022/04/29 04:56:38;;;;;;;24.95;11.93;;;12.70;99.90;;;;;;5051866;28;20108;-83
2022/04/29 04:59:12;;;;;;;16.50;9.55;;;12.70;99.90;;;;;;5074491;28;20064;-83
2022/04/29 05:01:59;;;;;;;22.88;12.23;;;12.40;99.90;;;;;;5076097;28;20135;-83
2022/04/29 05:04:29;;;;;;;23.10;11.30;;;12.40;99.90;;;;;;5086966;27;20040;-82
2022/04/29 05:07:05;;;;;;;27.30;10.98;;;12.60;99.90;;;;;;5069435;28;20210;-83
2022/04/29 05:09:39;;;;;;;24.48;11.05;;;12.50;99.90;;;;;;5075238;28;20121;-83
2022/04/29 05:12:14;;;;;;;22.83;10.50;;;11.80;99.90;;;;;;5075335;28;20488;-83
2022/04/29 05:15:03;;;;;;;;;;;;;;;;;;;;;
2022/04/29 05:17:52;;;;;;;21.70;10.73;;;12.60;99.90;;;;;;5108331;28;39441;-86
2022/04/29 05:20:38;;;;;;;21.15;10.20;;;12.70;99.90;;;;;;5087934;28;20064;-87
2022/04/29 05:23:15;;;;;;;21.42;10.98;;;12.30;99.90;;;;;;5078357;28;20339;-85
2022/04/29 05:26:10;;;;;;;19.88;10.27;;;12.70;99.90;;;;;;5089875;28;20175;-83
2022/04/29 05:28:46;;;;;;;19.65;10.18;;;12.70;99.90;;;;;;5101160;27;20058;-85
2022/04/29 05:31:21;;;;;;;24.58;11.27;;;12.80;99.90;;;;;;5087056;28;20056;-84
2022/04/29 05:36:50;;;;;;;20.42;11.15;;;12.80;99.90;;;;;;5106673;27;20028;-83
2022/04/29 05:42:33;;;;;;;23.08;11.27;;;12.80;99.90;;;;;;5110708;28;20036;-84
2022/04/29 05:45:43;;;;;;;22.63;11.32;;;13.50;99.90;;;;;;5077463;28;20076;-84
2022/04/29 05:48:19;;;;;;;14.43;8.98;;;12.90;99.90;;;;;;5070846;28;20048;-85
2022/04/29 05:53:54;;;;;;;20.92;11.68;;;12.70;99.90;;;;;;5068969;28;20174;-88
2022/04/29 05:56:50;;;;;;;26.33;13.10;;;12.70;99.90;;;;;;5092264;28;20063;-88
2022/04/29 05:59:45;;;;;;;19.60;11.05;;;12.60;99.90;;;;;;5074854;28;20052;-87
2022/04/29 06:02:38;;;;;;;25.25;9.55;;;13.60;99.90;;;;;;5073425;28;20048;-85
2022/04/29 06:05:36;;;;;;;23.83;9.98;;;12.70;99.90;;;;;;5086809;28;20163;-85
2022/04/29 06:11:18;;;;;;;23.73;11.97;;;12.70;99.90;;;;;;5084876;28;20045;-85
2022/04/29 06:14:13;;;;;;;24.77;12.25;;;12.80;99.90;;;;;;5087936;28;20048;-85
2022/04/29 06:16:54;;;;;;;33.50;11.73;;;12.90;99.90;;;;;;5069590;28;20048;-84
2022/04/29 06:22:55;;;;;;;26.70;11.40;;;12.80;99.90;;;;;;5076044;28;20570;-87
2022/04/29 06:26:13;;;;;;;22.90;10.98;;;13.00;99.90;;;;;;5052348;28;20055;-87
2022/04/29 06:29:15;;;;;;;24.13;11.20;;;14.00;99.90;;;;;;5055937;28;20052;-88
2022/04/29 06:35:43;;;;;;;22.70;11.35;;;13.00;99.90;;;;;;5059532;28;20958;-90
2022/04/29 06:38:37;;;;;;;26.52;12.50;;;12.60;99.90;;;;;;5013774;28;20072;-84
2022/04/29 06:45:07;;;;;;;22.50;11.48;;;12.90;99.90;;;;;;4996561;28;20085;-88
2022/04/29 06:48:09;;;;;;;33.95;11.75;;;13.10;99.90;;;;;;4998331;28;20053;-87
2022/04/29 06:54:09;;;;;;;21.27;12.05;;;13.00;99.90;;;;;;5022273;28;20046;-86
2022/04/29 06:57:34;;;;;;;21.55;12.05;;;13.20;99.90;;;;;;5036396;28;20053;-86
2022/04/29 07:00:52;;;;;;;29.60;12.85;;;13.30;99.90;;;;;;4986657;28;20076;-85
2022/04/29 07:03:34;;;;;;;20.58;9.90;;;13.40;99.90;;;;;;5068745;28;20045;-85
2022/04/29 07:06:23;;;;;;;19.50;9.13;;;13.40;99.90;;;;;;5094728;28;20807;-86
2022/04/29 07:09:21;;;;;;;31.50;12.23;;;13.50;99.90;;;;;;5076460;28;20052;-86
2022/04/29 07:11:54;;;;;;;26.67;12.77;;;13.60;99.90;;;;;;5077957;28;20049;-86
2022/04/29 07:28:28;;;;;;;21.63;9.90;;;13.00;99.90;;;;;;5076578;28;20106;-86
2022/04/29 07:31:13;;;;;;;20.00;11.50;;;13.90;99.90;;;;;;5075897;28;20064;-86
2022/04/29 07:41:44;;;;;;;24.10;11.95;;;13.90;99.90;;;;;;5078293;28;20795;-86
2022/04/29 07:44:27;;;;;;;24.33;12.07;;;13.70;99.90;;;;;;5075377;28;20967;-85
2022/04/29 07:53:40;;;;;;;27.55;10.15;;;13.50;99.90;;;;;;5065263;28;20055;-86
2022/04/29 07:56:33;;;;;;;22.63;12.70;;;13.60;99.90;;;;;;5092834;28;20078;-86
2022/04/29 07:59:25;;;;;;;21.77;11.82;;;13.80;99.90;;;;;;5070916;28;20449;-86
2022/04/29 08:08:38;;;;;;;24.88;10.27;;;14.30;99.90;;;;;;5076792;28;20621;-86
2022/04/29 08:11:53;;;;;;;21.58;10.40;;;14.40;99.90;;;;;;5058075;28;20057;-85
2022/04/29 08:14:56;;;;;;;;;;;;;;;;;;;;;
2022/04/29 08:17:50;;;;;;;20.42;11.02;;;14.40;99.90;;;;;;5074284;28;40506;-86
2022/04/29 08:23:43;;;;;;;21.15;10.57;;;14.80;99.90;;;;;;5073862;28;20044;-86
2022/04/29 08:29:35;;;;;;;20.52;10.20;;;15.20;99.90;;;;;;5076525;28;20048;-85
2022/04/29 08:36:04;;;;;;;25.65;11.98;;;16.00;99.90;;;;;;5065657;28;20922;-85
2022/04/29 08:42:36;;;;;;;21.75;10.27;;;16.00;99.90;;;;;;5077216;28;20056;-85
2022/04/29 08:46:05;;;;;;;11.35;6.30;;;16.10;99.90;;;;;;5072501;28;20049;-86
2022/04/29 08:48:47;;;;;;;27.98;12.52;;;15.80;99.90;;;;;;5075736;28;20541;-86
2022/04/29 09:01:41;;;;;;;23.88;11.65;;;16.10;99.90;;;;;;5054054;28;20064;-86
2022/04/29 09:04:23;;;;;;;18.35;9.30;;;16.20;99.90;;;;;;5031997;28;20059;-84
2022/04/29 09:07:11;;;;;;;20.95;10.98;;;16.50;99.90;;;;;;5053577;28;20134;-85
2022/04/29 09:10:13;;;;;;;18.85;11.75;;;16.70;99.90;;;;;;5032674;28;20127;-84
2022/04/29 09:16:48;;;;;;;24.17;11.18;;;16.70;99.90;;;;;;5053859;28;20041;-84
2022/04/29 09:20:13;;;;;;;22.25;11.77;;;16.50;99.90;;;;;;5025508;28;20049;-84
2022/04/29 09:23:35;;;;;;;24.83;12.93;;;16.30;99.90;;;;;;5076693;28;20134;-84
2022/04/29 09:29:28;;;;;;;;;;;16.30;99.90;;;;;;5062594;28;20056;-84
2022/04/29 09:32:05;;;;;;;21.40;12.05;;;16.30;99.90;;;;;;5067891;28;20705;-84
2022/04/29 09:35:06;;;;;;;25.98;12.70;;;16.40;99.90;;;;;;5075447;28;20763;-84
2022/04/29 09:41:25;;;;;;;29.10;13.57;;;16.60;99.90;;;;;;5076780;28;20056;-84
2022/04/29 09:44:47;;;;;;;;;;;;;;;;;;;;;
2022/04/29 09:47:22;;;;;;;21.55;11.02;;;17.00;99.90;;;;;;5075757;28;20666;-85
2022/04/29 09:50:36;;;;;;;23.05;11.35;;;17.20;99.90;;;;;;5067663;28;20642;-85
2022/04/29 09:53:36;;;;;;;22.75;10.20;;;17.30;99.90;;;;;;5072878;28;20076;-85
2022/04/29 09:59:33;;;;;;;17.60;10.55;;;17.50;99.90;;;;;;5079732;28;20050;-85
2022/04/29 10:02:17;;;;;;;16.92;11.18;;;17.70;99.90;;;;;;5079634;28;20160;-85
2022/04/29 10:05:05;;;;;;;19.08;11.45;;;17.90;99.90;;;;;;5079251;28;20151;-84
2022/04/29 10:07:52;;;;;;;23.67;11.82;;;17.80;99.90;;;;;;5062192;28;20053;-85
2022/04/29 10:11:11;;;;;;;;;;;;;;;;;;;;;
2022/04/29 10:24:40;;;;;;;;;;;17.80;99.90;;;;;;5063437;28;20931;-85
2022/04/29 10:27:32;;;;;;;20.48;10.52;;;17.80;99.90;;;;;;5067469;28;20426;-86
2022/04/29 10:30:49;;;;;;;19.85;13.38;;;17.70;99.90;;;;;;5064908;28;20059;-84
2022/04/29 10:36:51;;;;;;;22.05;11.10;;;17.90;99.90;;;;;;5048382;28;20099;-85
2022/04/29 10:40:07;;;;;;;22.50;11.25;;;17.90;99.90;;;;;;5051761;28;20045;-85
2022/04/29 10:43:14;;;;;;;22.20;10.35;;;18.20;99.50;;;;;;5034837;28;20148;-86
2022/04/29 10:46:08;;;;;;;19.63;8.98;;;18.10;99.50;;;;;;5049990;28;20682;-85
2022/04/29 10:49:01;;;;;;;16.83;9.95;;;18.20;98.70;;;;;;5051850;28;20259;-86
2022/04/29 10:55:31;;;;;;;;;;;;;;;;;;;;;
2022/04/29 10:58:33;;;;;;;21.92;10.70;;;18.00;98.70;;;;;;5052546;28;41462;-86
2022/04/29 11:01:46;;;;;;;14.52;7.90;;;18.10;98.20;;;;;;5016098;28;20060;-85
2022/04/29 11:05:04;;;;;;;21.52;10.93;;;18.20;97.60;;;;;;5062736;28;20206;-86
2022/04/29 11:08:06;;;;;;;15.85;10.00;;;18.20;97.10;;;;;;5074130;28;20110;-86
2022/04/29 11:10:57;;;;;;;15.55;8.50;;;18.20;96.90;;;;;;5047416;28;20049;-86
2022/04/29 11:16:27;;;;;;;13.55;8.95;;;18.70;96.50;;;;;;5049680;28;20061;-86
2022/04/29 11:26:07;;;;;;;16.77;9.07;;;18.90;95.60;;;;;;5024603;28;20696;-86
2022/04/29 11:29:23;;;;;;;19.70;10.05;;;19.00;95.70;;;;;;5028692;28;20046;-86
2022/04/29 11:32:44;;;;;;;14.15;9.05;;;19.30;95.50;;;;;;5025289;28;20183;-85
2022/04/29 11:35:35;;;;;;;;;;;;;;;;;;;;;
2022/04/29 11:38:24;;;;;;;13.38;7.82;;;19.30;94.90;;;;;;5024533;28;39933;-86
2022/04/29 11:41:27;;;;;;;15.52;9.73;;;19.30;94.10;;;;;;5012775;28;20060;-85
2022/04/29 11:45:13;;;;;;;17.10;10.02;;;19.80;94.10;;;;;;5046897;28;20110;-86
2022/04/29 11:52:08;;;;;;;23.17;8.57;;;20.30;93.30;;;;;;5046879;28;20049;-88
2022/04/29 11:55:08;;;;;;;15.80;7.65;;;20.20;92.80;;;;;;5006835;28;20073;-86
2022/04/29 11:58:25;;;;;;;14.38;7.75;;;20.10;91.90;;;;;;5075681;28;20047;-86
2022/04/29 12:01:41;;;;;;;17.73;8.65;;;19.80;91.60;;;;;;5026691;28;20049;-87
2022/04/29 12:05:05;;;;;;;;;;;;;;;;;;;;;
2022/04/29 12:08:03;;;;;;;16.52;8.30;;;19.30;92.00;;;;;;5075424;28;44362;-87
2022/04/29 12:13:51;;;;;;;17.17;8.52;;;20.10;92.10;;;;;;5065605;28;20052;-87
2022/04/29 12:16:36;;;;;;;18.33;8.80;;;18.90;91.80;;;;;;5049614;28;20072;-86
2022/04/29 12:19:42;;;;;;;;;;;;;;;;;;;;;
2022/04/29 12:22:50;;;;;;;13.68;7.53;;;18.60;91.60;;;;;;5065933;28;42115;-87
2022/04/29 12:25:45;;;;;;;18.38;7.22;;;18.70;91.70;;;;;;5056186;28;20589;-87
2022/04/29 12:29:11;;;;;;;12.82;6.68;;;18.30;92.00;;;;;;5064458;28;20820;-87
2022/04/29 12:35:16;;;;;;;14.45;6.72;;;18.20;91.90;;;;;;5065997;28;20084;-87
2022/04/29 12:48:17;;;;;;;10.05;4.80;;;18.60;92.20;;;;;;5083139;28;20055;-87
2022/04/29 12:51:05;;;;;;;19.27;8.40;;;18.60;92.10;;;;;;5076340;28;20098;-87
2022/04/29 12:54:07;;;;;;;17.92;8.45;;;18.60;92.20;;;;;;5084521;28;20603;-87
2022/04/29 12:57:06;;;;;;;11.25;5.72;;;18.50;92.20;;;;;;5067719;28;20822;-88
2022/04/29 13:00:08;;;;;;;14.40;7.35;;;18.50;92.00;;;;;;5076680;28;20064;-86
2022/04/29 13:03:04;;;;;;;17.02;9.05;;;18.50;91.90;;;;;;5073093;28;20044;-87
2022/04/29 13:06:10;;;;;;;15.07;7.45;;;18.50;91.90;;;;;;5070551;28;20122;-86
2022/04/29 13:09:28;;;;;;;14.40;7.18;;;18.30;92.00;;;;;;5094878;28;20585;-89
2022/04/29 13:12:43;;;;;;;14.52;7.60;;;18.60;91.80;;;;;;5084426;28;20044;-88
2022/04/29 13:15:46;;;;;;;11.30;5.95;;;18.70;91.80;;;;;;5041799;28;20080;-87
2022/04/29 13:18:40;;;;;;;11.43;6.22;;;18.70;91.70;;;;;;5067886;27;20049;-86
2022/04/29 13:21:29;;;;;;;12.65;7.57;;;18.70;91.80;;;;;;5080846;27;20041;-87
2022/04/29 13:24:04;;;;;;;10.52;6.57;;;19.00;91.90;;;;;;5085022;27;20621;-86
2022/04/29 13:27:09;;;;;;;;;;;;;;;;;;;;;
2022/04/29 13:29:59;;;;;;;12.77;6.57;;;18.80;91.60;;;;;;5087628;28;38897;-87
2022/04/29 13:32:42;;;;;;;13.55;6.00;;;18.90;91.50;;;;;;5077333;28;20099;-86
2022/04/29 13:35:40;;;;;;;14.75;6.32;;;18.90;91.60;;;;;;5070232;27;20048;-87
2022/04/29 13:38:33;;;;;;;13.43;7.10;;;18.90;91.60;;;;;;5084328;28;20931;-87
2022/04/29 13:41:22;;;;;;;10.65;5.43;;;18.90;91.60;;;;;;5095047;28;20048;-86
2022/04/29 13:44:03;;;;;;;19.27;7.38;;;19.00;91.10;;;;;;5075223;28;20048;-87
2022/04/29 13:47:06;;;;;;;;;;;;;;;;;;;;;
2022/04/29 13:50:05;;;;;;;15.07;7.82;;;19.10;91.30;;;;;;5096606;28;40858;-87
2022/04/29 13:59:42;;;;;;;10.73;6.57;;;19.20;90.70;;;;;;5082308;28;20052;-87
2022/04/29 14:02:38;;;;;;;10.48;5.32;;;19.20;90.60;;;;;;5084319;28;20371;-87
2022/04/29 14:05:54;;;;;;;8.95;6.30;;;19.80;90.80;;;;;;5083929;28;20059;-87
2022/04/29 14:08:56;;;;;;;;;;;;;;;;;;;;;
2022/04/29 14:11:46;;;;;;;13.35;6.28;;;19.40;90.40;;;;;;5036086;28;42526;-85
2022/04/29 14:14:55;;;;;;;12.73;6.57;;;19.30;90.50;;;;;;5095165;27;20537;-84
2022/04/29 14:18:04;;;;;;;11.68;7.22;;;19.30;90.80;;;;;;5097406;28;20040;-85
2022/04/29 14:20:58;;;;;;;12.77;6.28;;;19.10;90.30;;;;;;5078407;28;20052;-85
2022/04/29 14:23:42;;;;;;;12.63;6.43;;;19.20;90.30;;;;;;5073200;28;20048;-86
2022/04/29 14:30:19;;;;;;;8.93;5.85;;;19.60;90.20;;;;;;5096003;28;20051;-85
2022/04/29 14:32:56;;;;;;;9.48;4.88;;;19.70;89.30;;;;;;5052938;28;20681;-86
2022/04/29 14:36:19;;;;;;;14.95;6.78;;;19.40;89.00;;;;;;5036353;28;20052;-86
2022/04/29 14:39:39;;;;;;;10.18;5.82;;;19.50;89.20;;;;;;5029699;28;20662;-86
2022/04/29 14:42:39;;;;;;;9.20;5.88;;;19.50;89.10;;;;;;5030224;28;20072;-86
2022/04/29 14:45:27;;;;;;;8.07;5.28;;;20.10;89.20;;;;;;5031009;28;20041;-86
2022/04/29 14:48:20;;;;;;;10.32;5.43;;;19.80;89.20;;;;;;5030877;28;20081;-85
2022/04/29 14:54:27;;;;;;;13.50;6.00;;;19.60;88.60;;;;;;4985680;28;20077;-86
2022/04/29 14:57:09;;;;;;;9.45;4.75;;;19.60;88.50;;;;;;5009140;28;20214;-85
2022/04/29 15:03:07;;;;;;;9.20;4.53;;;19.60;87.30;;;;;;4995611;28;20541;-85
2022/04/29 15:06:03;;;;;;;14.40;5.38;;;19.60;87.00;;;;;;5016951;28;20516;-85
2022/04/29 15:18:23;;;;;;;7.80;4.75;;;19.60;86.30;;;;;;5022379;28;20053;-87
2022/04/29 15:21:06;;;;;;;8.38;6.20;;;19.70;86.60;;;;;;5033574;28;20049;-86
2022/04/29 15:23:54;;;;;;;7.72;4.43;;;19.70;86.50;;;;;;4994057;28;20054;-86
2022/04/29 15:30:14;;;;;;;;;;;;;;;;;;;;;
2022/04/29 15:33:19;;;;;;;7.22;4.18;;;19.70;86.10;;;;;;5003382;28;42997;-86
2022/04/29 15:36:19;;;;;;;8.55;4.85;;;19.80;86.50;;;;;;5033825;28;20620;-85
2022/04/29 15:39:14;;;;;;;11.10;5.13;;;19.70;86.40;;;;;;5048341;28;20577;-85
2022/04/29 15:42:34;;;;;;;;;;;;;;;;;;;;;
2022/04/29 15:45:48;;;;;;;11.35;5.20;;;19.90;86.70;;;;;;5030664;28;44805;-86
2022/04/29 15:49:08;;;;;;;7.97;5.38;;;19.90;86.10;;;;;;5029566;28;20052;-86
2022/04/29 15:52:21;;;;;;;7.10;4.15;;;20.00;86.00;;;;;;5044981;28;20126;-86
2022/04/29 15:55:16;;;;;;;7.90;4.20;;;20.00;85.50;;;;;;5064354;28;20044;-86
2022/04/29 15:58:01;;;;;;;8.30;4.68;;;19.90;85.70;;;;;;5080704;28;20075;-85
2022/04/29 16:00:53;;;;;;;6.47;3.80;;;19.90;85.00;;;;;;5095698;28;20480;-86
2022/04/29 16:10:53;;;;;;;;;;;19.70;84.50;;;;;;5045411;28;20089;-86
2022/04/29 16:16:42;;;;;;;7.03;4.13;;;20.00;83.60;;;;;;5039890;28;20785;-82
2022/04/29 16:25:47;;;;;;;12.18;5.60;;;19.90;84.30;;;;;;5012715;28;20610;-86
2022/04/29 16:28:22;;;;;;;10.45;4.65;;;20.10;84.50;;;;;;5060942;28;20141;-86
2022/04/29 16:31:20;;;;;;;7.60;4.45;;;20.10;84.10;;;;;;5087763;28;20078;-86
2022/04/29 16:34:37;;;;;;;9.65;3.58;;;20.40;83.10;;;;;;5089606;27;20117;-86
2022/04/29 16:37:57;;;;;;;;;;;;;;;;;;;;;
2022/04/29 16:44:41;;;;;;;5.47;3.42;;;19.70;81.80;;;;;;5095212;28;20827;-86
2022/04/29 16:47:42;;;;;;;7.03;3.88;;;20.00;82.40;;;;;;5076370;28;20055;-84
2022/04/29 16:50:41;;;;;;;6.88;4.47;;;19.90;82.10;;;;;;5071856;28;20044;-93
2022/04/29 16:53:31;;;;;;;9.05;4.35;;;19.90;82.20;;;;;;5078157;28;20056;-87
2022/04/29 16:56:11;;;;;;;12.18;4.88;;;20.00;82.80;;;;;;5096871;28;20123;-85
2022/04/29 17:02:16;;;;;;;5.97;4.25;;;19.80;82.90;;;;;;5022123;28;20534;-86
2022/04/29 17:05:39;;;;;;;5.57;2.78;;;19.80;83.10;;;;;;5045336;28;20053;-84
2022/04/29 17:08:48;;;;;;;4.47;3.03;;;19.70;82.90;;;;;;5074879;28;20073;-89
2022/04/29 17:15:11;;;;;;;6.05;3.13;;;19.60;83.00;;;;;;5012441;28;20155;-86
2022/04/29 17:21:20;;;;;;;7.28;3.88;;;19.50;83.60;;;;;;5072782;28;20049;-86
2022/04/29 17:30:25;;;;;;;10.93;4.55;;;19.40;84.80;;;;;;5074405;28;20570;-85
2022/04/29 17:33:21;;;;;;;7.15;4.20;;;19.30;84.30;;;;;;5076949;28;20047;-90
2022/04/29 17:36:01;;;;;;;5.82;3.90;;;19.20;84.30;;;;;;5074019;28;20072;-86
2022/04/29 17:42:21;;;;;;;7.55;3.88;;;19.10;84.50;;;;;;5044059;28;20128;-86
2022/04/29 17:42:36;;;;;;;9.15;4.75;;;19.10;84.80;;;;;;5045558;28;20041;-86
2022/04/29 17:56:14;;;;;;;;;;;;;;;;;;;;;
2022/04/29 17:59:16;;;;;;;6.72;3.80;;;18.70;85.90;;;;;;5042500;28;39957;-87
2022/04/29 18:02:00;;;;;;;;;;;18.70;86.20;;;;;;5029626;28;20213;-86
2022/04/29 18:04:29;;;;;;;7.53;4.97;;;18.60;86.40;;;;;;5039912;28;19920;-86
2022/04/29 18:07:09;;;;;;;6.07;4.25;;;18.70;86.70;;;;;;5056722;28;20130;-87
2022/04/29 18:10:03;;;;;;;8.70;4.45;;;18.40;86.70;;;;;;5077680;28;20120;-85
2022/04/29 18:13:46;;;;;;;;;;;;;;;;;;;;;
2022/04/29 18:16:26;;;;;;;6.43;4.10;;;18.30;87.30;;;;;;5059593;28;42124;-90
2022/04/29 18:19:22;;;;;;;7.32;5.10;;;18.30;87.50;;;;;;5037233;28;20053;-90
2022/04/29 18:25:33;;;;;;;10.68;4.80;;;18.30;88.00;;;;;;5048093;28;20057;-89
2022/04/29 18:28:58;;;;;;;;;;;;;;;;;;;;;
2022/04/29 18:32:38;;;;;;;9.43;4.75;;;18.00;88.30;;;;;;5007291;28;40357;-89
2022/04/29 18:35:30;;;;;;;12.83;4.73;;;18.00;88.80;;;;;;5019006;28;20049;-89
2022/04/29 18:38:20;;;;;;;8.70;3.95;;;17.90;89.00;;;;;;5016869;28;20116;-89
2022/04/29 18:44:05;;;;;;;;;;;;;;;;;;;;;
2022/04/29 18:46:59;;;;;;;10.38;5.05;;;17.70;89.80;;;;;;5078410;28;40743;-89
2022/04/29 18:49:32;;;;;;;7.55;5.03;;;17.60;89.70;;;;;;5078995;28;20132;-90
2022/04/29 18:52:26;;;;;;;7.68;5.03;;;17.30;90.10;;;;;;5059987;28;20145;-90
2022/04/29 18:55:08;;;;;;;7.50;4.68;;;17.10;90.30;;;;;;5061845;28;20143;-89
2022/04/29 18:57:53;;;;;;;11.05;5.22;;;17.30;90.70;;;;;;5063148;28;20113;-90
2022/04/29 19:00:51;;;;;;;12.02;6.35;;;17.30;91.00;;;;;;5081781;28;20356;-89